sensor_id;sensor_type;location;lat;lon;timestamp;P1;durP1;ratioP1;P2;durP2;ratioP2
13329;SDS011;6734;48.638;8.896;2022-12-18T00:02:11;49.10;;;22.73;;
13329;SDS011;6734;48.638;8.896;2022-12-18T00:04:37;46.23;;;22.53;;
13329;SDS011;6734;48.638;8.896;2022-12-18T00:07:02;50.93;;;21.70;;
13329;SDS011;6734;48.638;8.896;2022-12-18T00:09:28;59.47;;;25.83;;
13329;SDS011;6734;48.638;8.896;2022-12-18T00:11:54;44.57;;;21.90;;
13329;SDS011;6734;48.638;8.896;2022-12-18T00:14:20;51.50;;;24.43;;
13329;SDS011;6734;48.638;8.896;2022-12-18T00:16:46;61.77;;;29.60;;
13329;SDS011;6734;48.638;8.896;2022-12-18T00:19:12;51.57;;;25.83;;
13329;SDS011;6734;48.638;8.896;2022-12-18T00:21:39;57.80;;;25.63;;
13329;SDS011;6734;48.638;8.896;2022-12-18T00:24:05;51.07;;;22.60;;
13329;SDS011;6734;48.638;8.896;2022-12-18T00:26:31;42.83;;;18.17;;
13329;SDS011;6734;48.638;8.896;2022-12-18T00:29:01;42.07;;;21.00;;
13329;SDS011;6734;48.638;8.896;2022-12-18T00:31:28;32.33;;;13.23;;
13329;SDS011;6734;48.638;8.896;2022-12-18T00:33:54;41.90;;;18.97;;
13329;SDS011;6734;48.638;8.896;2022-12-18T00:36:22;42.93;;;18.33;;
13329;SDS011;6734;48.638;8.896;2022-12-18T00:38:49;47.00;;;21.53;;
13329;SDS011;6734;48.638;8.896;2022-12-18T00:41:15;46.43;;;23.70;;
13329;SDS011;6734;48.638;8.896;2022-12-18T00:44:02;41.30;;;21.57;;
13329;SDS011;6734;48.638;8.896;2022-12-18T00:46:29;40.03;;;21.50;;
13329;SDS011;6734;48.638;8.896;2022-12-18T00:48:55;42.30;;;21.00;;
13329;SDS011;6734;48.638;8.896;2022-12-18T00:51:21;40.13;;;18.30;;
13329;SDS011;6734;48.638;8.896;2022-12-18T00:53:47;37.23;;;17.17;;
13329;SDS011;6734;48.638;8.896;2022-12-18T00:56:13;42.23;;;19.17;;
13329;SDS011;6734;48.638;8.896;2022-12-18T00:58:39;44.90;;;22.03;;
13329;SDS011;6734;48.638;8.896;2022-12-18T01:01:06;39.90;;;20.20;;
13329;SDS011;6734;48.638;8.896;2022-12-18T01:03:31;39.87;;;20.93;;
13329;SDS011;6734;48.638;8.896;2022-12-18T01:05:57;36.27;;;18.60;;
13329;SDS011;6734;48.638;8.896;2022-12-18T01:08:23;42.97;;;20.47;;
13329;SDS011;6734;48.638;8.896;2022-12-18T01:10:49;40.30;;;19.77;;
13329;SDS011;6734;48.638;8.896;2022-12-18T01:13:15;44.93;;;20.30;;
13329;SDS011;6734;48.638;8.896;2022-12-18T01:15:40;36.40;;;18.20;;
13329;SDS011;6734;48.638;8.896;2022-12-18T01:18:06;46.37;;;19.50;;
13329;SDS011;6734;48.638;8.896;2022-12-18T01:20:32;40.67;;;19.00;;
13329;SDS011;6734;48.638;8.896;2022-12-18T01:22:58;43.37;;;19.50;;
13329;SDS011;6734;48.638;8.896;2022-12-18T01:25:24;36.27;;;16.83;;
13329;SDS011;6734;48.638;8.896;2022-12-18T01:27:50;29.30;;;16.10;;
13329;SDS011;6734;48.638;8.896;2022-12-18T01:30:16;34.17;;;17.47;;
13329;SDS011;6734;48.638;8.896;2022-12-18T01:32:42;42.37;;;20.60;;
13329;SDS011;6734;48.638;8.896;2022-12-18T01:35:08;31.03;;;18.70;;
13329;SDS011;6734;48.638;8.896;2022-12-18T01:37:34;34.27;;;17.40;;
13329;SDS011;6734;48.638;8.896;2022-12-18T01:39:59;41.80;;;21.43;;
13329;SDS011;6734;48.638;8.896;2022-12-18T01:42:25;49.33;;;22.50;;
13329;SDS011;6734;48.638;8.896;2022-12-18T01:49:55;43.93;;;21.70;;
13329;SDS011;6734;48.638;8.896;2022-12-18T01:52:22;36.17;;;17.70;;
13329;SDS011;6734;48.638;8.896;2022-12-18T01:54:51;43.00;;;20.80;;
13329;SDS011;6734;48.638;8.896;2022-12-18T01:57:18;28.37;;;13.67;;
13329;SDS011;6734;48.638;8.896;2022-12-18T01:59:44;44.27;;;19.90;;
13329;SDS011;6734;48.638;8.896;2022-12-18T02:02:14;41.43;;;21.37;;
13329;SDS011;6734;48.638;8.896;2022-12-18T02:04:41;56.63;;;25.20;;
13329;SDS011;6734;48.638;8.896;2022-12-18T02:07:20;45.80;;;22.83;;
13329;SDS011;6734;48.638;8.896;2022-12-18T02:10:15;63.47;;;26.33;;
13329;SDS011;6734;48.638;8.896;2022-12-18T02:12:52;46.23;;;23.07;;
13329;SDS011;6734;48.638;8.896;2022-12-18T02:17:58;49.00;;;22.67;;
13329;SDS011;6734;48.638;8.896;2022-12-18T02:20:33;43.50;;;19.30;;
13329;SDS011;6734;48.638;8.896;2022-12-18T02:26:12;35.60;;;15.70;;
13329;SDS011;6734;48.638;8.896;2022-12-18T02:28:56;52.87;;;24.07;;
13329;SDS011;6734;48.638;8.896;2022-12-18T02:31:24;43.33;;;20.37;;
13329;SDS011;6734;48.638;8.896;2022-12-18T02:33:56;44.17;;;18.57;;
13329;SDS011;6734;48.638;8.896;2022-12-18T02:36:26;47.67;;;21.20;;
13329;SDS011;6734;48.638;8.896;2022-12-18T02:38:53;48.80;;;22.27;;
13329;SDS011;6734;48.638;8.896;2022-12-18T02:41:23;50.53;;;21.93;;
13329;SDS011;6734;48.638;8.896;2022-12-18T02:43:58;39.57;;;18.27;;
13329;SDS011;6734;48.638;8.896;2022-12-18T02:57:26;51.80;;;22.10;;
13329;SDS011;6734;48.638;8.896;2022-12-18T03:00:12;44.40;;;19.33;;
13329;SDS011;6734;48.638;8.896;2022-12-18T03:02:48;51.10;;;22.40;;
13329;SDS011;6734;48.638;8.896;2022-12-18T03:05:28;44.77;;;19.20;;
13329;SDS011;6734;48.638;8.896;2022-12-18T03:10:34;45.80;;;19.70;;
13329;SDS011;6734;48.638;8.896;2022-12-18T03:13:05;50.00;;;20.57;;
13329;SDS011;6734;48.638;8.896;2022-12-18T03:15:34;57.30;;;21.63;;
13329;SDS011;6734;48.638;8.896;2022-12-18T03:18:10;49.10;;;21.97;;
13329;SDS011;6734;48.638;8.896;2022-12-18T03:21:01;59.53;;;22.40;;
13329;SDS011;6734;48.638;8.896;2022-12-18T03:23:32;54.07;;;21.80;;
13329;SDS011;6734;48.638;8.896;2022-12-18T03:26:04;61.53;;;23.30;;
13329;SDS011;6734;48.638;8.896;2022-12-18T03:28:35;52.17;;;20.03;;
13329;SDS011;6734;48.638;8.896;2022-12-18T03:31:04;47.17;;;21.13;;
13329;SDS011;6734;48.638;8.896;2022-12-18T03:33:38;61.23;;;24.07;;
13329;SDS011;6734;48.638;8.896;2022-12-18T03:36:07;62.03;;;25.60;;
13329;SDS011;6734;48.638;8.896;2022-12-18T03:38:33;43.33;;;21.23;;
13329;SDS011;6734;48.638;8.896;2022-12-18T03:41:00;53.03;;;22.20;;
13329;SDS011;6734;48.638;8.896;2022-12-18T03:43:44;54.60;;;21.97;;
13329;SDS011;6734;48.638;8.896;2022-12-18T03:49:25;88.03;;;36.23;;
13329;SDS011;6734;48.638;8.896;2022-12-18T03:54:34;58.93;;;22.40;;
13329;SDS011;6734;48.638;8.896;2022-12-18T03:57:04;73.07;;;25.17;;
13329;SDS011;6734;48.638;8.896;2022-12-18T03:59:34;54.77;;;21.90;;
13329;SDS011;6734;48.638;8.896;2022-12-18T04:02:01;68.03;;;24.70;;
13329;SDS011;6734;48.638;8.896;2022-12-18T04:04:29;66.30;;;23.83;;
13329;SDS011;6734;48.638;8.896;2022-12-18T04:06:56;62.37;;;23.07;;
13329;SDS011;6734;48.638;8.896;2022-12-18T04:09:22;65.30;;;22.27;;
13329;SDS011;6734;48.638;8.896;2022-12-18T04:11:49;66.13;;;23.60;;
13329;SDS011;6734;48.638;8.896;2022-12-18T04:14:15;66.23;;;23.33;;
13329;SDS011;6734;48.638;8.896;2022-12-18T04:16:40;55.17;;;24.13;;
13329;SDS011;6734;48.638;8.896;2022-12-18T04:19:06;71.83;;;23.67;;
13329;SDS011;6734;48.638;8.896;2022-12-18T04:21:32;64.80;;;22.23;;
13329;SDS011;6734;48.638;8.896;2022-12-18T04:23:57;64.10;;;22.80;;
13329;SDS011;6734;48.638;8.896;2022-12-18T04:26:23;55.10;;;19.10;;
13329;SDS011;6734;48.638;8.896;2022-12-18T04:28:49;58.30;;;18.60;;
13329;SDS011;6734;48.638;8.896;2022-12-18T04:31:15;61.37;;;21.63;;
13329;SDS011;6734;48.638;8.896;2022-12-18T04:33:41;57.07;;;20.80;;
13329;SDS011;6734;48.638;8.896;2022-12-18T04:36:06;70.33;;;24.03;;
13329;SDS011;6734;48.638;8.896;2022-12-18T04:38:32;63.30;;;22.40;;
13329;SDS011;6734;48.638;8.896;2022-12-18T04:40:58;54.30;;;20.60;;
13329;SDS011;6734;48.638;8.896;2022-12-18T04:43:24;59.13;;;21.27;;
13329;SDS011;6734;48.638;8.896;2022-12-18T04:45:50;62.93;;;20.80;;
13329;SDS011;6734;48.638;8.896;2022-12-18T04:48:16;65.93;;;22.00;;
13329;SDS011;6734;48.638;8.896;2022-12-18T04:50:41;56.60;;;20.97;;
13329;SDS011;6734;48.638;8.896;2022-12-18T04:53:07;63.67;;;21.03;;
13329;SDS011;6734;48.638;8.896;2022-12-18T04:55:33;47.07;;;19.13;;
13329;SDS011;6734;48.638;8.896;2022-12-18T04:57:58;64.63;;;22.83;;
13329;SDS011;6734;48.638;8.896;2022-12-18T05:00:24;63.53;;;20.90;;
13329;SDS011;6734;48.638;8.896;2022-12-18T05:02:49;60.03;;;24.33;;
13329;SDS011;6734;48.638;8.896;2022-12-18T05:05:15;60.37;;;22.33;;
13329;SDS011;6734;48.638;8.896;2022-12-18T05:07:41;50.63;;;21.23;;
13329;SDS011;6734;48.638;8.896;2022-12-18T05:10:06;52.20;;;20.63;;
13329;SDS011;6734;48.638;8.896;2022-12-18T05:12:32;61.63;;;20.77;;
13329;SDS011;6734;48.638;8.896;2022-12-18T05:14:58;55.60;;;20.87;;
13329;SDS011;6734;48.638;8.896;2022-12-18T05:17:23;67.67;;;20.57;;
13329;SDS011;6734;48.638;8.896;2022-12-18T05:19:49;71.07;;;23.17;;
13329;SDS011;6734;48.638;8.896;2022-12-18T05:22:15;62.73;;;22.53;;
13329;SDS011;6734;48.638;8.896;2022-12-18T05:24:41;57.93;;;20.90;;
13329;SDS011;6734;48.638;8.896;2022-12-18T05:27:07;63.43;;;22.73;;
13329;SDS011;6734;48.638;8.896;2022-12-18T05:29:33;66.53;;;20.83;;
13329;SDS011;6734;48.638;8.896;2022-12-18T05:31:59;55.10;;;20.47;;
13329;SDS011;6734;48.638;8.896;2022-12-18T05:34:25;61.17;;;20.97;;
13329;SDS011;6734;48.638;8.896;2022-12-18T05:36:51;70.20;;;20.23;;
13329;SDS011;6734;48.638;8.896;2022-12-18T05:39:17;57.60;;;20.10;;
13329;SDS011;6734;48.638;8.896;2022-12-18T05:41:43;109.73;;;26.33;;
13329;SDS011;6734;48.638;8.896;2022-12-18T05:44:09;102.50;;;21.60;;
13329;SDS011;6734;48.638;8.896;2022-12-18T05:46:35;81.77;;;22.57;;
13329;SDS011;6734;48.638;8.896;2022-12-18T05:49:01;81.43;;;22.63;;
13329;SDS011;6734;48.638;8.896;2022-12-18T05:51:27;80.03;;;22.63;;
13329;SDS011;6734;48.638;8.896;2022-12-18T05:53:52;57.07;;;20.63;;
13329;SDS011;6734;48.638;8.896;2022-12-18T05:56:20;78.10;;;20.23;;
13329;SDS011;6734;48.638;8.896;2022-12-18T05:58:46;97.47;;;25.77;;
13329;SDS011;6734;48.638;8.896;2022-12-18T06:01:20;64.50;;;19.10;;
13329;SDS011;6734;48.638;8.896;2022-12-18T06:03:47;73.43;;;16.50;;
13329;SDS011;6734;48.638;8.896;2022-12-18T06:06:17;69.50;;;21.07;;
13329;SDS011;6734;48.638;8.896;2022-12-18T06:08:47;69.00;;;18.90;;
13329;SDS011;6734;48.638;8.896;2022-12-18T06:11:15;58.07;;;18.57;;
13329;SDS011;6734;48.638;8.896;2022-12-18T06:13:43;39.47;;;14.60;;
13329;SDS011;6734;48.638;8.896;2022-12-18T06:16:09;52.20;;;19.57;;
13329;SDS011;6734;48.638;8.896;2022-12-18T06:18:35;57.23;;;18.83;;
13329;SDS011;6734;48.638;8.896;2022-12-18T06:21:01;49.37;;;16.43;;
13329;SDS011;6734;48.638;8.896;2022-12-18T06:23:27;53.13;;;18.90;;
13329;SDS011;6734;48.638;8.896;2022-12-18T06:25:53;52.63;;;17.07;;
13329;SDS011;6734;48.638;8.896;2022-12-18T06:28:21;53.23;;;17.60;;
13329;SDS011;6734;48.638;8.896;2022-12-18T06:30:47;48.07;;;17.00;;
13329;SDS011;6734;48.638;8.896;2022-12-18T06:33:14;54.93;;;18.40;;
13329;SDS011;6734;48.638;8.896;2022-12-18T06:35:40;47.13;;;17.10;;
13329;SDS011;6734;48.638;8.896;2022-12-18T06:38:06;42.47;;;18.40;;
13329;SDS011;6734;48.638;8.896;2022-12-18T06:40:32;49.87;;;17.23;;
13329;SDS011;6734;48.638;8.896;2022-12-18T06:42:58;60.43;;;17.10;;
13329;SDS011;6734;48.638;8.896;2022-12-18T06:45:24;61.37;;;21.30;;
13329;SDS011;6734;48.638;8.896;2022-12-18T06:47:50;48.90;;;18.43;;
13329;SDS011;6734;48.638;8.896;2022-12-18T06:50:16;63.97;;;18.80;;
13329;SDS011;6734;48.638;8.896;2022-12-18T06:52:42;60.43;;;18.83;;
13329;SDS011;6734;48.638;8.896;2022-12-18T06:55:09;58.47;;;17.27;;
13329;SDS011;6734;48.638;8.896;2022-12-18T06:57:35;76.87;;;19.67;;
13329;SDS011;6734;48.638;8.896;2022-12-18T07:00:02;51.67;;;16.97;;
13329;SDS011;6734;48.638;8.896;2022-12-18T07:02:29;45.37;;;16.10;;
13329;SDS011;6734;48.638;8.896;2022-12-18T07:04:55;39.83;;;15.70;;
13329;SDS011;6734;48.638;8.896;2022-12-18T07:07:21;46.07;;;17.37;;
13329;SDS011;6734;48.638;8.896;2022-12-18T07:09:48;31.27;;;12.80;;
13329;SDS011;6734;48.638;8.896;2022-12-18T07:12:14;36.70;;;15.13;;
13329;SDS011;6734;48.638;8.896;2022-12-18T07:14:40;40.50;;;16.33;;
13329;SDS011;6734;48.638;8.896;2022-12-18T07:17:06;31.07;;;14.50;;
13329;SDS011;6734;48.638;8.896;2022-12-18T07:19:32;32.97;;;14.10;;
13329;SDS011;6734;48.638;8.896;2022-12-18T07:21:58;29.80;;;14.13;;
13329;SDS011;6734;48.638;8.896;2022-12-18T07:24:24;34.40;;;13.00;;
13329;SDS011;6734;48.638;8.896;2022-12-18T07:26:50;29.03;;;11.33;;
13329;SDS011;6734;48.638;8.896;2022-12-18T07:29:16;38.40;;;16.70;;
13329;SDS011;6734;48.638;8.896;2022-12-18T07:31:42;17.93;;;10.33;;
13329;SDS011;6734;48.638;8.896;2022-12-18T07:34:11;29.83;;;13.83;;
13329;SDS011;6734;48.638;8.896;2022-12-18T07:36:40;41.60;;;14.47;;
13329;SDS011;6734;48.638;8.896;2022-12-18T07:39:05;34.47;;;15.13;;
13329;SDS011;6734;48.638;8.896;2022-12-18T07:41:31;34.73;;;17.70;;
13329;SDS011;6734;48.638;8.896;2022-12-18T07:43:57;39.27;;;17.87;;
13329;SDS011;6734;48.638;8.896;2022-12-18T07:46:23;29.47;;;13.77;;
13329;SDS011;6734;48.638;8.896;2022-12-18T07:48:49;47.80;;;19.40;;
13329;SDS011;6734;48.638;8.896;2022-12-18T07:51:15;60.63;;;18.33;;
13329;SDS011;6734;48.638;8.896;2022-12-18T07:53:41;47.40;;;19.27;;
13329;SDS011;6734;48.638;8.896;2022-12-18T07:56:08;49.80;;;17.80;;
13329;SDS011;6734;48.638;8.896;2022-12-18T07:58:35;49.83;;;17.73;;
13329;SDS011;6734;48.638;8.896;2022-12-18T08:01:11;43.17;;;17.20;;
13329;SDS011;6734;48.638;8.896;2022-12-18T08:03:37;51.43;;;20.60;;
13329;SDS011;6734;48.638;8.896;2022-12-18T08:06:05;45.23;;;18.80;;
13329;SDS011;6734;48.638;8.896;2022-12-18T08:08:33;46.87;;;20.13;;
13329;SDS011;6734;48.638;8.896;2022-12-18T08:10:59;42.90;;;19.10;;
13329;SDS011;6734;48.638;8.896;2022-12-18T08:13:25;32.40;;;14.20;;
13329;SDS011;6734;48.638;8.896;2022-12-18T08:15:58;28.07;;;13.57;;
13329;SDS011;6734;48.638;8.896;2022-12-18T08:18:26;44.73;;;18.87;;
13329;SDS011;6734;48.638;8.896;2022-12-18T08:20:52;52.27;;;19.33;;
13329;SDS011;6734;48.638;8.896;2022-12-18T08:23:18;49.63;;;20.00;;
13329;SDS011;6734;48.638;8.896;2022-12-18T08:25:44;48.10;;;20.80;;
13329;SDS011;6734;48.638;8.896;2022-12-18T08:28:10;49.80;;;20.47;;
13329;SDS011;6734;48.638;8.896;2022-12-18T08:30:36;52.50;;;23.63;;
13329;SDS011;6734;48.638;8.896;2022-12-18T08:33:01;50.57;;;19.67;;
13329;SDS011;6734;48.638;8.896;2022-12-18T08:35:27;42.43;;;18.43;;
13329;SDS011;6734;48.638;8.896;2022-12-18T08:37:53;57.33;;;24.10;;
13329;SDS011;6734;48.638;8.896;2022-12-18T08:40:19;51.97;;;23.37;;
13329;SDS011;6734;48.638;8.896;2022-12-18T08:42:45;45.20;;;19.63;;
13329;SDS011;6734;48.638;8.896;2022-12-18T08:45:29;46.73;;;19.53;;
13329;SDS011;6734;48.638;8.896;2022-12-18T08:47:56;19.50;;;10.30;;
13329;SDS011;6734;48.638;8.896;2022-12-18T08:50:22;41.63;;;18.23;;
13329;SDS011;6734;48.638;8.896;2022-12-18T08:52:48;56.47;;;22.83;;
13329;SDS011;6734;48.638;8.896;2022-12-18T08:55:14;54.80;;;18.40;;
13329;SDS011;6734;48.638;8.896;2022-12-18T08:57:40;52.70;;;21.83;;
13329;SDS011;6734;48.638;8.896;2022-12-18T09:00:06;61.97;;;23.83;;
13329;SDS011;6734;48.638;8.896;2022-12-18T09:02:32;51.60;;;22.37;;
13329;SDS011;6734;48.638;8.896;2022-12-18T09:04:58;58.67;;;24.00;;
13329;SDS011;6734;48.638;8.896;2022-12-18T09:07:24;60.27;;;24.30;;
13329;SDS011;6734;48.638;8.896;2022-12-18T09:09:50;81.30;;;30.50;;
13329;SDS011;6734;48.638;8.896;2022-12-18T09:12:16;67.90;;;27.73;;
13329;SDS011;6734;48.638;8.896;2022-12-18T09:14:42;63.05;;;27.15;;
13329;SDS011;6734;48.638;8.896;2022-12-18T09:17:08;62.30;;;23.90;;
13329;SDS011;6734;48.638;8.896;2022-12-18T09:19:34;53.50;;;20.87;;
13329;SDS011;6734;48.638;8.896;2022-12-18T09:22:00;58.00;;;22.40;;
13329;SDS011;6734;48.638;8.896;2022-12-18T09:24:25;72.20;;;29.17;;
13329;SDS011;6734;48.638;8.896;2022-12-18T09:26:55;61.63;;;24.10;;
13329;SDS011;6734;48.638;8.896;2022-12-18T09:29:20;52.40;;;20.43;;
13329;SDS011;6734;48.638;8.896;2022-12-18T09:31:46;59.60;;;22.43;;
13329;SDS011;6734;48.638;8.896;2022-12-18T09:34:12;51.27;;;20.43;;
13329;SDS011;6734;48.638;8.896;2022-12-18T09:36:38;43.67;;;19.23;;
13329;SDS011;6734;48.638;8.896;2022-12-18T09:39:04;60.17;;;24.53;;
13329;SDS011;6734;48.638;8.896;2022-12-18T09:44:03;53.33;;;20.20;;
13329;SDS011;6734;48.638;8.896;2022-12-18T09:46:37;58.50;;;22.23;;
13329;SDS011;6734;48.638;8.896;2022-12-18T09:49:11;59.77;;;25.70;;
13329;SDS011;6734;48.638;8.896;2022-12-18T09:51:40;54.10;;;21.97;;
13329;SDS011;6734;48.638;8.896;2022-12-18T09:54:23;58.43;;;23.67;;
13329;SDS011;6734;48.638;8.896;2022-12-18T09:57:03;57.10;;;24.27;;
13329;SDS011;6734;48.638;8.896;2022-12-18T09:59:30;42.97;;;18.40;;
13329;SDS011;6734;48.638;8.896;2022-12-18T10:04:42;55.17;;;24.73;;
13329;SDS011;6734;48.638;8.896;2022-12-18T10:07:12;76.20;;;27.67;;
13329;SDS011;6734;48.638;8.896;2022-12-18T10:09:55;58.47;;;22.97;;
13329;SDS011;6734;48.638;8.896;2022-12-18T10:20:42;64.23;;;29.30;;
13329;SDS011;6734;48.638;8.896;2022-12-18T10:23:21;57.30;;;24.50;;
13329;SDS011;6734;48.638;8.896;2022-12-18T10:28:27;53.53;;;19.63;;
13329;SDS011;6734;48.638;8.896;2022-12-18T10:30:56;53.47;;;24.90;;
13329;SDS011;6734;48.638;8.896;2022-12-18T10:33:22;58.87;;;22.37;;
13329;SDS011;6734;48.638;8.896;2022-12-18T10:35:53;69.03;;;26.53;;
13329;SDS011;6734;48.638;8.896;2022-12-18T10:38:21;65.13;;;27.57;;
13329;SDS011;6734;48.638;8.896;2022-12-18T10:40:49;63.10;;;25.17;;
13329;SDS011;6734;48.638;8.896;2022-12-18T10:51:19;70.00;;;27.30;;
13329;SDS011;6734;48.638;8.896;2022-12-18T10:53:50;69.57;;;28.70;;
13329;SDS011;6734;48.638;8.896;2022-12-18T10:56:19;76.40;;;27.07;;
13329;SDS011;6734;48.638;8.896;2022-12-18T10:58:45;75.77;;;30.17;;
13329;SDS011;6734;48.638;8.896;2022-12-18T11:01:21;79.70;;;33.37;;
13329;SDS011;6734;48.638;8.896;2022-12-18T11:03:58;74.90;;;28.70;;
13329;SDS011;6734;48.638;8.896;2022-12-18T11:06:26;84.17;;;29.97;;
13329;SDS011;6734;48.638;8.896;2022-12-18T11:11:30;76.93;;;28.97;;
13329;SDS011;6734;48.638;8.896;2022-12-18T11:14:04;65.80;;;28.30;;
13329;SDS011;6734;48.638;8.896;2022-12-18T11:16:50;72.80;;;29.70;;
13329;SDS011;6734;48.638;8.896;2022-12-18T11:22:00;70.43;;;28.60;;
13329;SDS011;6734;48.638;8.896;2022-12-18T11:24:31;65.63;;;26.17;;
13329;SDS011;6734;48.638;8.896;2022-12-18T11:27:13;76.47;;;28.93;;
13329;SDS011;6734;48.638;8.896;2022-12-18T11:29:43;103.60;;;37.33;;
13329;SDS011;6734;48.638;8.896;2022-12-18T11:34:41;102.43;;;36.07;;
13329;SDS011;6734;48.638;8.896;2022-12-18T11:37:11;94.47;;;37.67;;
13329;SDS011;6734;48.638;8.896;2022-12-18T11:39:41;93.43;;;39.93;;
13329;SDS011;6734;48.638;8.896;2022-12-18T11:47:52;61.30;;;28.50;;
13329;SDS011;6734;48.638;8.896;2022-12-18T11:50:41;59.30;;;25.63;;
13329;SDS011;6734;48.638;8.896;2022-12-18T11:53:22;46.17;;;22.57;;
13329;SDS011;6734;48.638;8.896;2022-12-18T11:58:27;38.17;;;19.90;;
13329;SDS011;6734;48.638;8.896;2022-12-18T12:09:13;49.03;;;24.47;;
13329;SDS011;6734;48.638;8.896;2022-12-18T12:11:56;38.80;;;21.00;;
13329;SDS011;6734;48.638;8.896;2022-12-18T12:17:38;39.90;;;19.63;;
13329;SDS011;6734;48.638;8.896;2022-12-18T12:25:39;49.30;;;21.37;;
13329;SDS011;6734;48.638;8.896;2022-12-18T12:31:10;41.50;;;19.40;;
13329;SDS011;6734;48.638;8.896;2022-12-18T12:36:22;43.43;;;19.97;;
13329;SDS011;6734;48.638;8.896;2022-12-18T12:39:16;40.47;;;20.30;;
13329;SDS011;6734;48.638;8.896;2022-12-18T12:41:47;41.03;;;18.80;;
13329;SDS011;6734;48.638;8.896;2022-12-18T12:44:33;36.63;;;19.00;;
13329;SDS011;6734;48.638;8.896;2022-12-18T12:47:07;41.63;;;19.80;;
13329;SDS011;6734;48.638;8.896;2022-12-18T12:49:40;34.33;;;18.13;;
13329;SDS011;6734;48.638;8.896;2022-12-18T12:52:12;35.73;;;19.03;;
13329;SDS011;6734;48.638;8.896;2022-12-18T12:54:42;35.57;;;17.70;;
13329;SDS011;6734;48.638;8.896;2022-12-18T12:57:15;39.03;;;19.17;;
13329;SDS011;6734;48.638;8.896;2022-12-18T13:00:05;39.73;;;19.73;;
13329;SDS011;6734;48.638;8.896;2022-12-18T13:02:39;39.73;;;19.77;;
13329;SDS011;6734;48.638;8.896;2022-12-18T13:10:36;136.37;;;54.67;;
13329;SDS011;6734;48.638;8.896;2022-12-18T13:13:07;36.40;;;18.27;;
13329;SDS011;6734;48.638;8.896;2022-12-18T13:15:34;41.10;;;18.70;;
13329;SDS011;6734;48.638;8.896;2022-12-18T13:20:37;31.40;;;17.27;;
13329;SDS011;6734;48.638;8.896;2022-12-18T13:25:52;39.30;;;18.83;;
13329;SDS011;6734;48.638;8.896;2022-12-18T13:28:23;39.70;;;19.00;;
13329;SDS011;6734;48.638;8.896;2022-12-18T13:30:54;40.10;;;20.07;;
13329;SDS011;6734;48.638;8.896;2022-12-18T13:39:08;41.97;;;19.80;;
13329;SDS011;6734;48.638;8.896;2022-12-18T13:41:34;43.27;;;21.30;;
13329;SDS011;6734;48.638;8.896;2022-12-18T13:44:45;42.93;;;21.07;;
13329;SDS011;6734;48.638;8.896;2022-12-18T13:46:46;43.50;;;20.60;;
13329;SDS011;6734;48.638;8.896;2022-12-18T13:51:39;44.77;;;21.03;;
13329;SDS011;6734;48.638;8.896;2022-12-18T13:56:57;45.47;;;21.30;;
13329;SDS011;6734;48.638;8.896;2022-12-18T14:02:11;45.80;;;20.50;;
13329;SDS011;6734;48.638;8.896;2022-12-18T14:04:44;82.00;;;34.93;;
13329;SDS011;6734;48.638;8.896;2022-12-18T14:07:24;45.20;;;22.00;;
13329;SDS011;6734;48.638;8.896;2022-12-18T14:09:53;47.53;;;22.20;;
13329;SDS011;6734;48.638;8.896;2022-12-18T14:15:21;40.27;;;18.70;;
13329;SDS011;6734;48.638;8.896;2022-12-18T14:20:55;48.10;;;20.97;;
13329;SDS011;6734;48.638;8.896;2022-12-18T14:23:39;40.27;;;20.93;;
13329;SDS011;6734;48.638;8.896;2022-12-18T14:34:34;40.77;;;20.27;;
13329;SDS011;6734;48.638;8.896;2022-12-18T14:37:00;46.57;;;21.40;;
13329;SDS011;6734;48.638;8.896;2022-12-18T14:39:25;42.57;;;20.00;;
13329;SDS011;6734;48.638;8.896;2022-12-18T14:41:52;44.57;;;22.37;;
13329;SDS011;6734;48.638;8.896;2022-12-18T14:44:17;47.13;;;22.23;;
13329;SDS011;6734;48.638;8.896;2022-12-18T14:46:44;46.80;;;21.67;;
13329;SDS011;6734;48.638;8.896;2022-12-18T14:49:21;44.50;;;20.07;;
13329;SDS011;6734;48.638;8.896;2022-12-18T14:52:01;49.90;;;22.30;;
13329;SDS011;6734;48.638;8.896;2022-12-18T14:54:31;47.70;;;21.00;;
13329;SDS011;6734;48.638;8.896;2022-12-18T14:59:30;47.87;;;21.80;;
13329;SDS011;6734;48.638;8.896;2022-12-18T15:02:01;45.03;;;22.60;;
13329;SDS011;6734;48.638;8.896;2022-12-18T15:04:43;51.43;;;21.87;;
13329;SDS011;6734;48.638;8.896;2022-12-18T15:10:09;43.03;;;21.33;;
13329;SDS011;6734;48.638;8.896;2022-12-18T15:12:45;38.37;;;17.60;;
13329;SDS011;6734;48.638;8.896;2022-12-18T15:20:49;47.03;;;22.00;;
13329;SDS011;6734;48.638;8.896;2022-12-18T15:26:08;40.83;;;18.30;;
13329;SDS011;6734;48.638;8.896;2022-12-18T15:28:38;42.20;;;18.37;;
13329;SDS011;6734;48.638;8.896;2022-12-18T15:33:41;44.60;;;20.43;;
13329;SDS011;6734;48.638;8.896;2022-12-18T15:36:12;49.17;;;21.27;;
13329;SDS011;6734;48.638;8.896;2022-12-18T15:38:39;53.73;;;23.10;;
13329;SDS011;6734;48.638;8.896;2022-12-18T15:41:05;67.87;;;29.07;;
13329;SDS011;6734;48.638;8.896;2022-12-18T15:43:31;64.03;;;29.03;;
13329;SDS011;6734;48.638;8.896;2022-12-18T15:46:05;81.13;;;34.27;;
13329;SDS011;6734;48.638;8.896;2022-12-18T15:48:34;48.93;;;23.00;;
13329;SDS011;6734;48.638;8.896;2022-12-18T15:51:04;42.50;;;21.27;;
13329;SDS011;6734;48.638;8.896;2022-12-18T15:53:34;49.17;;;22.70;;
13329;SDS011;6734;48.638;8.896;2022-12-18T15:56:00;47.40;;;19.10;;
13329;SDS011;6734;48.638;8.896;2022-12-18T15:58:45;42.27;;;20.70;;
13329;SDS011;6734;48.638;8.896;2022-12-18T16:01:10;52.17;;;23.07;;
13329;SDS011;6734;48.638;8.896;2022-12-18T16:03:39;42.57;;;19.27;;
13329;SDS011;6734;48.638;8.896;2022-12-18T16:06:05;43.33;;;20.70;;
13329;SDS011;6734;48.638;8.896;2022-12-18T16:08:30;50.70;;;22.87;;
13329;SDS011;6734;48.638;8.896;2022-12-18T16:10:57;52.00;;;25.30;;
13329;SDS011;6734;48.638;8.896;2022-12-18T16:13:23;58.77;;;25.67;;
13329;SDS011;6734;48.638;8.896;2022-12-18T16:15:49;46.20;;;23.27;;
13329;SDS011;6734;48.638;8.896;2022-12-18T16:18:14;43.87;;;19.83;;
13329;SDS011;6734;48.638;8.896;2022-12-18T16:20:40;38.30;;;17.67;;
13329;SDS011;6734;48.638;8.896;2022-12-18T16:23:06;40.50;;;18.87;;
13329;SDS011;6734;48.638;8.896;2022-12-18T16:25:31;36.07;;;17.33;;
13329;SDS011;6734;48.638;8.896;2022-12-18T16:27:57;43.27;;;20.67;;
13329;SDS011;6734;48.638;8.896;2022-12-18T16:30:27;40.20;;;17.67;;
13329;SDS011;6734;48.638;8.896;2022-12-18T16:32:55;46.13;;;20.80;;
13329;SDS011;6734;48.638;8.896;2022-12-18T16:35:25;51.50;;;22.87;;
13329;SDS011;6734;48.638;8.896;2022-12-18T16:37:51;51.07;;;22.03;;
13329;SDS011;6734;48.638;8.896;2022-12-18T16:40:17;51.23;;;21.73;;
13329;SDS011;6734;48.638;8.896;2022-12-18T16:42:43;57.30;;;27.13;;
13329;SDS011;6734;48.638;8.896;2022-12-18T16:45:14;49.40;;;22.73;;
13329;SDS011;6734;48.638;8.896;2022-12-18T16:47:42;62.47;;;28.43;;
13329;SDS011;6734;48.638;8.896;2022-12-18T16:50:08;70.33;;;33.47;;
13329;SDS011;6734;48.638;8.896;2022-12-18T16:52:34;66.63;;;33.37;;
13329;SDS011;6734;48.638;8.896;2022-12-18T16:55:00;48.60;;;24.83;;
13329;SDS011;6734;48.638;8.896;2022-12-18T16:57:26;57.73;;;23.37;;
13329;SDS011;6734;48.638;8.896;2022-12-18T16:59:51;50.67;;;24.43;;
13329;SDS011;6734;48.638;8.896;2022-12-18T17:02:18;54.53;;;27.63;;
13329;SDS011;6734;48.638;8.896;2022-12-18T17:04:49;41.10;;;22.60;;
13329;SDS011;6734;48.638;8.896;2022-12-18T17:07:17;46.70;;;22.83;;
13329;SDS011;6734;48.638;8.896;2022-12-18T17:09:42;52.73;;;24.80;;
13329;SDS011;6734;48.638;8.896;2022-12-18T17:12:08;39.50;;;17.30;;